Seneimaru — JG5357 — position and weather

sailwx.info

Track history (hours):
 
Tides and Currents Weather Stations Pressure Air Temp Water Temp Dewpoint Dewpoint Depression Visibility Wind Speed Wind Dir Waves Ship Positions

Seneimaru

Last reported at 2016-Jun-30 04:31 UTC. Time now 2016-Jun-30 05:12 UTC.
Position N 35°30' E 139°43'.

Length 72 m; draft 5.9 m.

Type: Cargo ship. MMSI: 431100477.

Date/timePositionNaut miles runAvg speedWind from/ knotsBaromVisibWave heightAir tempDewpointWater temp
2016-Jun-30 04:31N 35°30' E 139°43'0 0.0
2016-Jun-30 03:31N 35°30' E 139°43'0 0.0
2016-Jun-30 02:31N 35°30' E 139°43'0 0.0
2016-Jun-30 01:28N 35°30' E 139°43'0 0.0
2016-Jun-30 00:31N 35°30' E 139°43'0 0.0
2016-Jun-29 23:31N 35°30' E 139°43'0 0.0
2016-Jun-29 22:31N 35°30' E 139°43'0 0.0
2016-Jun-29 21:31N 35°30' E 139°43'1 1.1
2016-Jun-29 20:33N 35°29' E 139°42'5 5.3
2016-Jun-29 19:32N 35°24' E 139°44'0 0.0
2016-Jun-29 18:32N 35°24' E 139°44'0 0.0
2016-Jun-29 17:32N 35°24' E 139°44'0 0.0
2016-Jun-29 16:32N 35°24' E 139°44'0 0.0
2016-Jun-29 15:32N 35°24' E 139°44'0 0.0
2016-Jun-29 14:32N 35°24' E 139°44'4 3.6
2016-Jun-29 13:33N 35°21' E 139°43'1111.3
2016-Jun-29 12:33N 35°09' E 139°46'1311.7
2016-Jun-29 11:26N 34°56' E 139°44'3 0.1
2016-Jun-28 03:32N 34°53' E 139°45'1111.7
2016-Jun-28 02:33N 35°05' E 139°44'1212.3
2016-Jun-28 01:33N 35°17' E 139°45'1110.6
2016-Jun-28 00:33N 35°27' E 139°47'4 4.2
2016-Jun-27 23:32N 35°30' E 139°43'0 0.0
2016-Jun-27 22:32N 35°30' E 139°43'0 0.0
2016-Jun-27 21:32N 35°30' E 139°43'0 0.0
2016-Jun-27 20:32N 35°30' E 139°43'0 0.0
2016-Jun-27 19:32N 35°30' E 139°43'0 0.0
2016-Jun-27 18:32N 35°30' E 139°43'0 0.0
2016-Jun-27 17:32N 35°30' E 139°43'0 0.0
2016-Jun-27 16:32N 35°30' E 139°43'0 0.0
2016-Jun-27 15:32N 35°30' E 139°43'0 0.0
2016-Jun-27 14:32N 35°30' E 139°43'0 0.0
2016-Jun-27 13:32N 35°30' E 139°43'0 0.0
2016-Jun-27 12:32N 35°30' E 139°43'0 0.0
2016-Jun-27 11:32N 35°30' E 139°43'0 0.0
2016-Jun-27 10:32N 35°30' E 139°43'0 0.0
2016-Jun-27 09:32N 35°30' E 139°43'0 0.0
2016-Jun-27 08:32N 35°30' E 139°43'0 0.0
2016-Jun-27 07:32N 35°30' E 139°43'0 0.0
2016-Jun-27 06:32N 35°30' E 139°43'0 0.0
2016-Jun-27 05:32N 35°30' E 139°43'0 0.0
2016-Jun-27 04:32N 35°30' E 139°43'0 0.0
2016-Jun-27 03:32N 35°30' E 139°43'0 0.0
2016-Jun-27 02:32N 35°30' E 139°43'0 0.0
2016-Jun-27 01:32N 35°30' E 139°43'0 0.0
2016-Jun-27 00:32N 35°30' E 139°43'0 0.0
2016-Jun-26 23:32N 35°30' E 139°43'0 0.0
2016-Jun-26 22:32N 35°30' E 139°43'0 0.0
2016-Jun-26 21:32N 35°30' E 139°43'0 0.0
2016-Jun-26 20:32N 35°30' E 139°43'0 0.0
2016-Jun-26 19:32N 35°30' E 139°43'0 0.0
2016-Jun-26 18:32N 35°30' E 139°43'0 0.0
2016-Jun-26 17:32N 35°30' E 139°43'0 0.0
2016-Jun-26 16:32N 35°30' E 139°43'0 0.0
2016-Jun-26 15:32N 35°30' E 139°43'0 0.0
2016-Jun-26 14:32N 35°30' E 139°43'0 0.0
2016-Jun-26 13:32N 35°30' E 139°43'0 0.0
2016-Jun-26 12:32N 35°30' E 139°43'0 0.0
2016-Jun-26 11:32N 35°30' E 139°43'0 0.0
2016-Jun-26 10:32N 35°30' E 139°43'0 0.0
2016-Jun-26 09:32N 35°30' E 139°43'0 0.0
2016-Jun-26 08:32N 35°30' E 139°43'0 0.0
2016-Jun-26 07:32N 35°30' E 139°43'0 0.0
2016-Jun-26 06:32N 35°30' E 139°43'0 0.0
2016-Jun-26 05:32N 35°30' E 139°43'0 0.0
2016-Jun-26 04:32N 35°30' E 139°43'0 0.0
2016-Jun-26 03:32N 35°30' E 139°43'0 0.0
2016-Jun-26 02:32N 35°30' E 139°43'0 0.0
2016-Jun-26 01:32N 35°30' E 139°43'1 0.8
2016-Jun-26 00:34N 35°29' E 139°43'6 5.6
2016-Jun-25 23:32N 35°24' E 139°44'0 0.1
2016-Jun-25 22:32N 35°24' E 139°45'7 7.6
2016-Jun-25 21:33N 35°17' E 139°46'1211.8
2016-Jun-25 20:33N 35°05' E 139°45'10 0.3
2016-Jun-24 10:33N 34°55' E 139°44'1111.0
2016-Jun-24 09:33N 35°06' E 139°45'1111.1
2016-Jun-24 08:33N 35°17' E 139°45'9 9.4
2016-Jun-24 07:33N 35°26' E 139°46'5 1.5
2016-Jun-24 04:33N 35°30' E 139°43'0 0.0
2016-Jun-24 03:30N 35°30' E 139°43'0 0.0
2016-Jun-24 02:34N 35°30' E 139°43'0 0.0
2016-Jun-24 01:33N 35°30' E 139°43'0 0.0
2016-Jun-24 00:33N 35°30' E 139°43'0 0.0
2016-Jun-23 23:33N 35°30' E 139°43'0 0.0
2016-Jun-23 22:33N 35°30' E 139°43'2 2.3
2016-Jun-23 21:33N 35°28' E 139°42'6 6.3
2016-Jun-23 20:33N 35°22' E 139°45'1111.4
2016-Jun-23 19:33N 35°11' E 139°46'1412.4
2016-Jun-23 18:25N 34°57' E 139°44'0 0.0
2016-Jun-22 09:33N 34°56' E 139°44'1111.3
2016-Jun-22 08:33N 35°07' E 139°45'1110.6
2016-Jun-22 07:33N 35°18' E 139°44'10 9.7
2016-Jun-22 06:33N 35°27' E 139°47'4 4.0
2016-Jun-22 05:33N 35°30' E 139°43'0 0.0
2016-Jun-22 04:33N 35°30' E 139°43'0 0.0
2016-Jun-22 03:33N 35°30' E 139°43'0 0.0
2016-Jun-22 02:33N 35°30' E 139°43'0 0.0
2016-Jun-22 01:33N 35°30' E 139°43'0 0.0
2016-Jun-22 00:33N 35°30' E 139°43'0 0.0
2016-Jun-21 23:33N 35°30' E 139°43'0 0.0
2016-Jun-21 22:33N 35°30' E 139°43'2 2.5
2016-Jun-21 21:34N 35°28' E 139°42'4 4.2
2016-Jun-21 20:32N 35°24' E 139°44'0 0.1
2016-Jun-21 19:32N 35°24' E 139°44'0 0.0
2016-Jun-21 18:32N 35°24' E 139°44'0 0.0
2016-Jun-21 17:32N 35°24' E 139°44'0 0.0
2016-Jun-21 16:32N 35°24' E 139°44'6 6.0
2016-Jun-21 15:33N 35°18' E 139°45'1111.3
2016-Jun-21 14:33N 35°07' E 139°45'11 0.3
2016-Jun-20 06:33N 34°56' E 139°44'1111.2
2016-Jun-20 05:33N 35°07' E 139°45'1010.3
2016-Jun-20 04:33N 35°17' E 139°45'  
Track history (hours):
 
Tides and Currents Weather Stations Pressure Air Temp Water Temp Dewpoint Dewpoint Depression Visibility Wind Speed Wind Dir Waves Ship Positions

Seneimaru

Last reported at 2016-Jun-30 04:31 UTC. Time now 2016-Jun-30 05:12 UTC.
Position N 35°30' E 139°43'.

Length 72 m; draft 5.9 m.

Type: Cargo ship. MMSI: 431100477.

Date/timePositionNaut miles runAvg speedWind from/ knotsBaromVisibWave heightAir tempDewpointWater temp
2016-Jun-30 04:31N 35°30' E 139°43'0 0.0
2016-Jun-30 03:31N 35°30' E 139°43'0 0.0
2016-Jun-30 02:31N 35°30' E 139°43'0 0.0
2016-Jun-30 01:28N 35°30' E 139°43'0 0.0
2016-Jun-30 00:31N 35°30' E 139°43'0 0.0
2016-Jun-29 23:31N 35°30' E 139°43'0 0.0
2016-Jun-29 22:31N 35°30' E 139°43'0 0.0
2016-Jun-29 21:31N 35°30' E 139°43'1 1.1
2016-Jun-29 20:33N 35°29' E 139°42'5 5.3
2016-Jun-29 19:32N 35°24' E 139°44'0 0.0
2016-Jun-29 18:32N 35°24' E 139°44'0 0.0
2016-Jun-29 17:32N 35°24' E 139°44'0 0.0
2016-Jun-29 16:32N 35°24' E 139°44'0 0.0
2016-Jun-29 15:32N 35°24' E 139°44'0 0.0
2016-Jun-29 14:32N 35°24' E 139°44'4 3.6
2016-Jun-29 13:33N 35°21' E 139°43'1111.3
2016-Jun-29 12:33N 35°09' E 139°46'1311.7
2016-Jun-29 11:26N 34°56' E 139°44'3 0.1
2016-Jun-28 03:32N 34°53' E 139°45'1111.7
2016-Jun-28 02:33N 35°05' E 139°44'1212.3
2016-Jun-28 01:33N 35°17' E 139°45'1110.6
2016-Jun-28 00:33N 35°27' E 139°47'4 4.2
2016-Jun-27 23:32N 35°30' E 139°43'0 0.0
2016-Jun-27 22:32N 35°30' E 139°43'0 0.0
2016-Jun-27 21:32N 35°30' E 139°43'0 0.0
2016-Jun-27 20:32N 35°30' E 139°43'0 0.0
2016-Jun-27 19:32N 35°30' E 139°43'0 0.0
2016-Jun-27 18:32N 35°30' E 139°43'0 0.0
2016-Jun-27 17:32N 35°30' E 139°43'0 0.0
2016-Jun-27 16:32N 35°30' E 139°43'0 0.0
2016-Jun-27 15:32N 35°30' E 139°43'0 0.0
2016-Jun-27 14:32N 35°30' E 139°43'0 0.0
2016-Jun-27 13:32N 35°30' E 139°43'0 0.0
2016-Jun-27 12:32N 35°30' E 139°43'0 0.0
2016-Jun-27 11:32N 35°30' E 139°43'0 0.0
2016-Jun-27 10:32N 35°30' E 139°43'0 0.0
2016-Jun-27 09:32N 35°30' E 139°43'0 0.0
2016-Jun-27 08:32N 35°30' E 139°43'0 0.0
2016-Jun-27 07:32N 35°30' E 139°43'0 0.0
2016-Jun-27 06:32N 35°30' E 139°43'0 0.0
2016-Jun-27 05:32N 35°30' E 139°43'0 0.0
2016-Jun-27 04:32N 35°30' E 139°43'0 0.0
2016-Jun-27 03:32N 35°30' E 139°43'0 0.0
2016-Jun-27 02:32N 35°30' E 139°43'0 0.0
2016-Jun-27 01:32N 35°30' E 139°43'0 0.0
2016-Jun-27 00:32N 35°30' E 139°43'0 0.0
2016-Jun-26 23:32N 35°30' E 139°43'0 0.0
2016-Jun-26 22:32N 35°30' E 139°43'0 0.0
2016-Jun-26 21:32N 35°30' E 139°43'0 0.0
2016-Jun-26 20:32N 35°30' E 139°43'0 0.0
2016-Jun-26 19:32N 35°30' E 139°43'0 0.0
2016-Jun-26 18:32N 35°30' E 139°43'0 0.0
2016-Jun-26 17:32N 35°30' E 139°43'0 0.0
2016-Jun-26 16:32N 35°30' E 139°43'0 0.0
2016-Jun-26 15:32N 35°30' E 139°43'0 0.0
2016-Jun-26 14:32N 35°30' E 139°43'0 0.0
2016-Jun-26 13:32N 35°30' E 139°43'0 0.0
2016-Jun-26 12:32N 35°30' E 139°43'0 0.0
2016-Jun-26 11:32N 35°30' E 139°43'0 0.0
2016-Jun-26 10:32N 35°30' E 139°43'0 0.0
2016-Jun-26 09:32N 35°30' E 139°43'0 0.0
2016-Jun-26 08:32N 35°30' E 139°43'0 0.0
2016-Jun-26 07:32N 35°30' E 139°43'0 0.0
2016-Jun-26 06:32N 35°30' E 139°43'0 0.0
2016-Jun-26 05:32N 35°30' E 139°43'0 0.0
2016-Jun-26 04:32N 35°30' E 139°43'0 0.0
2016-Jun-26 03:32N 35°30' E 139°43'0 0.0
2016-Jun-26 02:32N 35°30' E 139°43'0 0.0
2016-Jun-26 01:32N 35°30' E 139°43'1 0.8
2016-Jun-26 00:34N 35°29' E 139°43'6 5.6
2016-Jun-25 23:32N 35°24' E 139°44'0 0.1
2016-Jun-25 22:32N 35°24' E 139°45'7 7.6
2016-Jun-25 21:33N 35°17' E 139°46'1211.8
2016-Jun-25 20:33N 35°05' E 139°45'10 0.3
2016-Jun-24 10:33N 34°55' E 139°44'1111.0
2016-Jun-24 09:33N 35°06' E 139°45'1111.1
2016-Jun-24 08:33N 35°17' E 139°45'9 9.4
2016-Jun-24 07:33N 35°26' E 139°46'5 1.5
2016-Jun-24 04:33N 35°30' E 139°43'0 0.0
2016-Jun-24 03:30N 35°30' E 139°43'0 0.0
2016-Jun-24 02:34N 35°30' E 139°43'0 0.0
2016-Jun-24 01:33N 35°30' E 139°43'0 0.0
2016-Jun-24 00:33N 35°30' E 139°43'0 0.0
2016-Jun-23 23:33N 35°30' E 139°43'0 0.0
2016-Jun-23 22:33N 35°30' E 139°43'2 2.3
2016-Jun-23 21:33N 35°28' E 139°42'6 6.3
2016-Jun-23 20:33N 35°22' E 139°45'1111.4
2016-Jun-23 19:33N 35°11' E 139°46'1412.4
2016-Jun-23 18:25N 34°57' E 139°44'0 0.0
2016-Jun-22 09:33N 34°56' E 139°44'1111.3
2016-Jun-22 08:33N 35°07' E 139°45'1110.6
2016-Jun-22 07:33N 35°18' E 139°44'10 9.7
2016-Jun-22 06:33N 35°27' E 139°47'4 4.0
2016-Jun-22 05:33N 35°30' E 139°43'0 0.0
2016-Jun-22 04:33N 35°30' E 139°43'0 0.0
2016-Jun-22 03:33N 35°30' E 139°43'0 0.0
2016-Jun-22 02:33N 35°30' E 139°43'0 0.0
2016-Jun-22 01:33N 35°30' E 139°43'0 0.0
2016-Jun-22 00:33N 35°30' E 139°43'0 0.0
2016-Jun-21 23:33N 35°30' E 139°43'0 0.0
2016-Jun-21 22:33N 35°30' E 139°43'2 2.5
2016-Jun-21 21:34N 35°28' E 139°42'4 4.2
2016-Jun-21 20:32N 35°24' E 139°44'0 0.1
2016-Jun-21 19:32N 35°24' E 139°44'0 0.0
2016-Jun-21 18:32N 35°24' E 139°44'0 0.0
2016-Jun-21 17:32N 35°24' E 139°44'0 0.0
2016-Jun-21 16:32N 35°24' E 139°44'6 6.0
2016-Jun-21 15:33N 35°18' E 139°45'1111.3
2016-Jun-21 14:33N 35°07' E 139°45'11 0.3
2016-Jun-20 06:33N 34°56' E 139°44'1111.2
2016-Jun-20 05:33N 35°07' E 139°45'1010.3
2016-Jun-20 04:33N 35°17' E 139°45'  

Dump ship's entire track history